createdAt,value
2023-04-27T00:02:06.552Z,9.70
2023-04-27T00:04:59.955Z,8.20
2023-04-27T00:11:54.305Z,7.00
2023-04-27T00:14:39.190Z,7.30
2023-04-27T00:17:42.948Z,8.40
2023-04-27T00:20:44.266Z,7.80
2023-04-27T00:23:48.692Z,6.90
2023-04-27T00:26:29.472Z,7.30
2023-04-27T00:29:29.371Z,7.20
2023-04-27T00:32:02.554Z,7.50
2023-04-27T00:34:56.655Z,7.10
2023-04-27T00:38:25.695Z,6.90
2023-04-27T00:41:26.648Z,7.80
2023-04-27T00:44:10.373Z,6.90
2023-04-27T00:46:47.988Z,6.70
2023-04-27T00:49:50.392Z,6.10
2023-04-27T00:52:53.712Z,6.10
2023-04-27T00:55:46.673Z,5.90
2023-04-27T00:58:40.503Z,6.10
2023-04-27T01:01:41.379Z,6.10
2023-04-27T01:04:36.042Z,5.50
2023-04-27T01:07:31.017Z,5.50
2023-04-27T01:11:02.691Z,6.20
2023-04-27T01:13:58.953Z,6.50
2023-04-27T01:16:52.086Z,5.80
2023-04-27T01:19:36.848Z,7.80
2023-04-27T01:22:19.377Z,8.00
2023-04-27T01:25:19.980Z,7.50
2023-04-27T01:28:08.923Z,8.00
2023-04-27T01:31:39.862Z,8.60
2023-04-27T01:34:19.749Z,7.50
2023-04-27T01:37:10.686Z,7.80
2023-04-27T01:42:19.807Z,7.30
2023-04-27T01:45:02.130Z,6.90
2023-04-27T01:48:07.842Z,5.80
2023-04-27T01:50:48.555Z,6.00
2023-04-27T01:53:28.210Z,5.30
2023-04-27T02:02:42.270Z,4.80
2023-04-27T02:06:05.969Z,5.50
2023-04-27T02:08:45.753Z,4.90
2023-04-27T02:11:23.430Z,5.20
2023-04-27T02:13:58.171Z,5.70
2023-04-27T02:16:45.140Z,5.90
2023-04-27T02:19:28.050Z,3.90
2023-04-27T02:24:50.474Z,4.00
2023-04-27T02:27:24.428Z,4.80
2023-04-27T02:30:04.882Z,5.00
2023-04-27T02:41:28.025Z,6.00
2023-04-27T02:44:14.392Z,7.20
2023-04-27T02:46:53.354Z,6.30
2023-04-27T02:50:16.487Z,6.20
2023-04-27T02:53:22.754Z,6.20
2023-04-27T02:57:03.939Z,7.90
2023-04-27T03:00:50.988Z,8.30
2023-04-27T03:03:55.665Z,8.00
2023-04-27T03:06:33.536Z,9.20
2023-04-27T03:09:12.742Z,8.70
2023-04-27T03:15:52.132Z,8.60
2023-04-27T03:19:48.246Z,9.00
2023-04-27T03:22:49.490Z,9.80
2023-04-27T03:26:16.593Z,9.40
2023-04-27T03:29:19.419Z,8.40
2023-04-27T03:38:37.838Z,8.60
2023-04-27T03:41:28.849Z,9.10
2023-04-27T03:44:19.747Z,8.10
2023-04-27T03:47:01.367Z,8.00
2023-04-27T03:50:47.157Z,7.90
2023-04-27T03:54:24.260Z,8.30
2023-04-27T03:57:16.520Z,9.20
2023-04-27T03:59:56.377Z,8.50
2023-04-27T04:02:40.129Z,8.00
2023-04-27T04:05:18.001Z,8.10
2023-04-27T04:07:52.881Z,8.30
2023-04-27T04:10:33.641Z,8.60
2023-04-27T04:13:12.316Z,9.60
2023-04-27T04:16:53.821Z,7.00
2023-04-27T04:19:46.916Z,4.50
2023-04-27T04:23:15.778Z,3.40
2023-04-27T04:26:18.044Z,2.80
2023-04-27T04:29:21.749Z,3.70
2023-04-27T04:36:41.451Z,3.40
2023-04-27T04:43:48.124Z,3.30
2023-04-27T04:47:32.749Z,3.30
2023-04-27T04:50:38.809Z,2.80
2023-04-27T04:53:55.900Z,2.90
2023-04-27T05:00:19.594Z,3.30
2023-04-27T05:20:19.213Z,3.50
2023-04-27T11:39:18.875Z,0.60
2023-04-27T12:15:13.980Z,0.70
2023-04-27T12:18:46.535Z,1.10
2023-04-27T12:43:07.253Z,0.60
2023-04-27T12:55:00.896Z,1.10
2023-04-27T13:26:41.422Z,0.90
2023-04-27T13:49:10.345Z,1.20
2023-04-27T14:01:31.902Z,1.50
2023-04-27T14:04:50.114Z,1.70
2023-04-27T14:07:53.155Z,1.90
2023-04-27T14:11:56.803Z,1.80
2023-04-27T14:15:12.179Z,1.30
2023-04-27T14:18:17.294Z,1.80
2023-04-27T14:22:10.809Z,1.70
2023-04-27T14:25:21.233Z,1.60
2023-04-27T14:28:30.077Z,2.30
2023-04-27T14:31:52.314Z,2.20
2023-04-27T14:38:59.493Z,2.30
2023-04-27T14:42:06.216Z,2.10
2023-04-27T14:50:28.814Z,2.50
2023-04-27T14:53:31.459Z,1.90
2023-04-27T14:57:22.423Z,2.20
2023-04-27T15:09:08.178Z,1.90
2023-04-27T15:11:59.153Z,2.20
2023-04-27T15:14:38.674Z,1.80
2023-04-27T15:18:38.980Z,2.50
2023-04-27T15:21:52.053Z,2.40
2023-04-27T15:30:35.456Z,2.20
2023-04-27T17:47:15.660Z,2.50
2023-04-27T17:54:32.657Z,2.60
2023-04-27T18:48:20.006Z,2.20
2023-04-27T18:51:31.914Z,2.80
2023-04-27T18:55:19.601Z,2.40
2023-04-27T18:58:23.265Z,2.80
2023-04-27T19:01:50.276Z,2.20
2023-04-27T19:18:10.585Z,2.50
2023-04-27T19:21:19.731Z,2.40
2023-04-27T19:24:49.880Z,2.00
2023-04-27T19:32:55.355Z,2.70
2023-04-27T19:35:41.032Z,3.10
2023-04-27T19:38:36.330Z,2.90
2023-04-27T19:46:22.896Z,2.70
2023-04-27T20:02:44.125Z,2.60
2023-04-27T20:24:03.735Z,3.10
2023-04-27T20:27:22.418Z,3.10
2023-04-27T20:44:39.268Z,3.10
2023-04-27T20:47:59.367Z,2.80
2023-04-27T20:59:20.545Z,3.40
2023-04-27T21:07:02.923Z,3.30
2023-04-27T21:10:27.825Z,2.90
2023-04-27T21:14:55.734Z,2.90
2023-04-27T21:25:34.392Z,3.40
2023-04-27T21:30:43.352Z,3.40
2023-04-27T21:33:14.537Z,3.70
2023-04-27T21:35:50.855Z,3.80
2023-04-27T21:38:29.500Z,3.20
2023-04-27T21:41:03.593Z,3.10
2023-04-27T21:43:35.033Z,3.40
2023-04-27T21:46:18.828Z,3.50
2023-04-27T21:48:48.123Z,3.00
2023-04-27T21:51:16.891Z,3.40
2023-04-27T21:53:45.742Z,3.40
2023-04-27T21:56:14.980Z,3.30
2023-04-27T21:58:44.872Z,3.60
2023-04-27T22:01:15.072Z,3.40
2023-04-27T22:03:43.809Z,3.20
2023-04-27T22:06:14.969Z,3.30
2023-04-27T22:08:44.056Z,3.20
2023-04-27T22:11:15.092Z,2.80
2023-04-27T22:13:44.799Z,3.20
2023-04-27T22:16:14.914Z,3.30
2023-04-27T22:18:42.597Z,3.30
2023-04-27T22:21:10.597Z,3.20
2023-04-27T22:23:42.684Z,3.20
2023-04-27T22:26:11.929Z,3.20
2023-04-27T22:28:40.926Z,3.60
2023-04-27T22:31:09.318Z,3.30
2023-04-27T22:33:42.906Z,3.70
2023-04-27T22:36:17.364Z,3.20
2023-04-27T22:38:45.837Z,3.10
2023-04-27T22:41:14.896Z,3.30
2023-04-27T22:43:42.503Z,3.00
2023-04-27T22:46:13.592Z,3.70
2023-04-27T22:48:42.101Z,3.30
2023-04-27T22:51:10.547Z,3.50
2023-04-27T22:53:38.250Z,3.60
2023-04-27T22:56:07.451Z,3.30
2023-04-27T22:58:37.004Z,3.70
2023-04-27T23:01:06.432Z,4.40
2023-04-27T23:03:40.018Z,3.10
2023-04-27T23:06:14.423Z,3.70
2023-04-27T23:08:45.885Z,3.50
2023-04-27T23:11:13.982Z,3.70
2023-04-27T23:13:41.354Z,3.90
2023-04-27T23:16:10.519Z,3.30
2023-04-27T23:18:39.038Z,3.10
2023-04-27T23:21:08.159Z,3.60
2023-04-27T23:23:36.405Z,3.20
2023-04-27T23:26:04.025Z,3.30
2023-04-27T23:28:31.625Z,3.30
2023-04-27T23:30:59.016Z,3.70
2023-04-27T23:33:26.658Z,2.80
2023-04-27T23:35:56.076Z,3.80
2023-04-27T23:38:38.460Z,3.20
2023-04-27T23:41:05.749Z,3.20
2023-04-27T23:47:40.080Z,3.20
2023-04-27T23:50:25.472Z,2.90
2023-04-27T23:53:14.285Z,3.70
2023-04-27T23:59:21.168Z,3.50
